sensor_id;sensor_type;location;lat;lon;timestamp;P1;P2;P0
64229;PMS5003;50547;49.498;0.092;2024-01-15T10:43:21;1;1;
64229;PMS5003;50547;49.498;0.092;2024-01-15T10:45:51;1;1;
64229;PMS5003;50547;49.498;0.092;2024-01-15T10:48:17;1;1;
64229;PMS5003;50547;49.498;0.092;2024-01-15T10:50:47;1;1;
64229;PMS5003;50547;49.498;0.092;2024-01-15T10:53:17;3;3;
64229;PMS5003;50547;49.498;0.092;2024-01-15T10:55:47;1;1;
64229;PMS5003;50547;49.498;0.092;2024-01-15T10:58:14;1;1;
64229;PMS5003;50547;49.498;0.092;2024-01-15T11:00:44;2;2;
64229;PMS5003;50547;49.498;0.092;2024-01-15T11:03:13;2;2;
64229;PMS5003;50547;49.498;0.092;2024-01-15T11:05:43;1;1;
64229;PMS5003;50547;49.498;0.092;2024-01-15T11:08:12;1;1;
64229;PMS5003;50547;49.498;0.092;2024-01-15T11:10:46;3;3;
64229;PMS5003;50547;49.498;0.092;2024-01-15T11:13:19;1;1;
64229;PMS5003;50547;49.498;0.092;2024-01-15T11:15:57;1;1;
64229;PMS5003;50547;49.498;0.092;2024-01-15T11:18:27;1;1;
64229;PMS5003;50547;49.498;0.092;2024-01-15T11:21:29;1;1;
64229;PMS5003;50547;49.498;0.092;2024-01-15T11:24:00;1;1;
64229;PMS5003;50547;49.498;0.092;2024-01-15T11:26:30;1;1;
64229;PMS5003;50547;49.498;0.092;2024-01-15T11:29:01;1;1;
64229;PMS5003;50547;49.498;0.092;2024-01-15T11:32:04;1;1;
64229;PMS5003;50547;49.498;0.092;2024-01-15T11:34:50;1;1;
64229;PMS5003;50547;49.498;0.092;2024-01-15T11:37:21;1;1;
64229;PMS5003;50547;49.498;0.092;2024-01-15T11:40:03;1;1;
64229;PMS5003;50547;49.498;0.092;2024-01-15T11:42:37;1;1;
64229;PMS5003;50547;49.498;0.092;2024-01-15T11:45:08;1;1;
64229;PMS5003;50547;49.498;0.092;2024-01-15T11:47:45;3;3;
64229;PMS5003;50547;49.498;0.092;2024-01-15T11:50:36;1;1;
64229;PMS5003;50547;49.498;0.092;2024-01-15T11:53:15;1;1;
64229;PMS5003;50547;49.498;0.092;2024-01-15T11:55:47;1;1;
64229;PMS5003;50547;49.498;0.092;2024-01-15T11:58:20;1;1;
64229;PMS5003;50547;49.498;0.092;2024-01-15T12:00:48;1;1;
64229;PMS5003;50547;49.498;0.092;2024-01-15T12:03:21;1;1;
64229;PMS5003;50547;49.498;0.092;2024-01-15T12:05:51;1;1;
64229;PMS5003;50547;49.498;0.092;2024-01-15T12:08:22;1;1;
64229;PMS5003;50547;49.498;0.092;2024-01-15T12:10:51;1;1;
64229;PMS5003;50547;49.498;0.092;2024-01-15T12:13:20;4;4;
64229;PMS5003;50547;49.498;0.092;2024-01-15T12:34:23;1;1;
64229;PMS5003;50547;49.498;0.092;2024-01-15T12:36:53;1;1;
64229;PMS5003;50547;49.498;0.092;2024-01-15T12:40:35;1;1;
64229;PMS5003;50547;49.498;0.092;2024-01-15T12:43:05;1;1;
64229;PMS5003;50547;49.498;0.092;2024-01-15T12:45:35;1;1;
64229;PMS5003;50547;49.498;0.092;2024-01-15T12:52:08;0;0;
64229;PMS5003;50547;49.498;0.092;2024-01-15T12:54:38;1;1;
64229;PMS5003;50547;49.498;0.092;2024-01-15T12:57:07;1;1;
64229;PMS5003;50547;49.498;0.092;2024-01-15T12:59:36;1;1;
64229;PMS5003;50547;49.498;0.092;2024-01-15T13:02:05;1;1;
64229;PMS5003;50547;49.498;0.092;2024-01-15T13:04:34;1;1;
64229;PMS5003;50547;49.498;0.092;2024-01-15T13:07:04;1;1;
64229;PMS5003;50547;49.498;0.092;2024-01-15T13:09:34;1;1;
64229;PMS5003;50547;49.498;0.092;2024-01-15T13:12:04;1;1;
64229;PMS5003;50547;49.498;0.092;2024-01-15T13:14:34;1;1;
64229;PMS5003;50547;49.498;0.092;2024-01-15T13:17:03;1;1;
64229;PMS5003;50547;49.498;0.092;2024-01-15T13:19:32;1;1;
64229;PMS5003;50547;49.498;0.092;2024-01-15T13:22:01;1;1;
64229;PMS5003;50547;49.498;0.092;2024-01-15T13:24:33;1;1;
64229;PMS5003;50547;49.498;0.092;2024-01-15T13:27:02;1;1;
64229;PMS5003;50547;49.498;0.092;2024-01-15T13:29:32;1;1;
64229;PMS5003;50547;49.498;0.092;2024-01-15T13:32:01;2;2;
64229;PMS5003;50547;49.498;0.092;2024-01-15T13:34:30;3;3;
64229;PMS5003;50547;49.498;0.092;2024-01-15T13:37:00;1;1;
64229;PMS5003;50547;49.498;0.092;2024-01-15T13:39:29;1;1;
64229;PMS5003;50547;49.498;0.092;2024-01-15T13:41:59;1;1;
64229;PMS5003;50547;49.498;0.092;2024-01-15T13:44:28;1;1;
64229;PMS5003;50547;49.498;0.092;2024-01-15T13:46:58;1;1;
64229;PMS5003;50547;49.498;0.092;2024-01-15T13:49:27;1;1;
64229;PMS5003;50547;49.498;0.092;2024-01-15T13:51:56;1;1;
64229;PMS5003;50547;49.498;0.092;2024-01-15T13:54:25;1;1;
64229;PMS5003;50547;49.498;0.092;2024-01-15T13:56:54;1;1;
64229;PMS5003;50547;49.498;0.092;2024-01-15T13:59:24;3;3;
64229;PMS5003;50547;49.498;0.092;2024-01-15T14:01:53;1;1;
64229;PMS5003;50547;49.498;0.092;2024-01-15T14:04:22;1;1;
64229;PMS5003;50547;49.498;0.092;2024-01-15T14:06:51;1;1;
64229;PMS5003;50547;49.498;0.092;2024-01-15T14:09:17;1;1;
64229;PMS5003;50547;49.498;0.092;2024-01-15T14:11:46;1;1;
64229;PMS5003;50547;49.498;0.092;2024-01-15T14:14:15;1;1;
64229;PMS5003;50547;49.498;0.092;2024-01-15T14:16:42;1;1;
64229;PMS5003;50547;49.498;0.092;2024-01-15T14:19:11;1;1;
64229;PMS5003;50547;49.498;0.092;2024-01-15T14:21:37;1;1;
64229;PMS5003;50547;49.498;0.092;2024-01-15T14:24:06;1;1;
64229;PMS5003;50547;49.498;0.092;2024-01-15T14:26:35;1;1;
64229;PMS5003;50547;49.498;0.092;2024-01-15T14:29:01;1;1;
64229;PMS5003;50547;49.498;0.092;2024-01-15T14:31:30;3;3;
64229;PMS5003;50547;49.498;0.092;2024-01-15T14:34:03;1;1;
64229;PMS5003;50547;49.498;0.092;2024-01-15T14:36:29;1;1;
64229;PMS5003;50547;49.498;0.092;2024-01-15T14:38:58;1;1;
64229;PMS5003;50547;49.498;0.092;2024-01-15T14:41:27;1;1;
64229;PMS5003;50547;49.498;0.092;2024-01-15T14:43:53;1;1;
64229;PMS5003;50547;49.498;0.092;2024-01-15T14:46:22;1;1;
64229;PMS5003;50547;49.498;0.092;2024-01-15T14:48:52;1;1;
64229;PMS5003;50547;49.498;0.092;2024-01-15T14:51:21;1;1;
64229;PMS5003;50547;49.498;0.092;2024-01-15T14:53:50;3;3;
64229;PMS5003;50547;49.498;0.092;2024-01-15T14:56:19;1;1;
64229;PMS5003;50547;49.498;0.092;2024-01-15T14:58:49;1;1;
64229;PMS5003;50547;49.498;0.092;2024-01-15T15:01:19;1;1;
64229;PMS5003;50547;49.498;0.092;2024-01-15T15:03:45;1;1;
64229;PMS5003;50547;49.498;0.092;2024-01-15T15:06:19;2;2;
64229;PMS5003;50547;49.498;0.092;2024-01-15T15:08:45;1;1;
64229;PMS5003;50547;49.498;0.092;2024-01-15T15:11:11;1;1;
64229;PMS5003;50547;49.498;0.092;2024-01-15T15:13:37;1;1;
64229;PMS5003;50547;49.498;0.092;2024-01-15T15:16:06;1;1;
64229;PMS5003;50547;49.498;0.092;2024-01-15T15:18:35;1;1;
64229;PMS5003;50547;49.498;0.092;2024-01-15T15:21:01;1;1;
64229;PMS5003;50547;49.498;0.092;2024-01-15T15:23:31;3;3;
64229;PMS5003;50547;49.498;0.092;2024-01-15T15:25:57;1;1;
64229;PMS5003;50547;49.498;0.092;2024-01-15T15:28:26;1;1;
64229;PMS5003;50547;49.498;0.092;2024-01-15T15:30:55;1;1;
64229;PMS5003;50547;49.498;0.092;2024-01-15T15:33:24;2;2;
64229;PMS5003;50547;49.498;0.092;2024-01-15T15:35:49;3;3;
64229;PMS5003;50547;49.498;0.092;2024-01-15T15:38:19;3;3;
64229;PMS5003;50547;49.498;0.092;2024-01-15T15:40:45;3;3;
64229;PMS5003;50547;49.498;0.092;2024-01-15T15:43:14;1;1;
64229;PMS5003;50547;49.498;0.092;2024-01-15T15:45:43;3;3;
64229;PMS5003;50547;49.498;0.092;2024-01-15T15:48:13;1;1;
64229;PMS5003;50547;49.498;0.092;2024-01-15T15:50:42;2;2;
64229;PMS5003;50547;49.498;0.092;2024-01-15T15:53:11;3;3;
64229;PMS5003;50547;49.498;0.092;2024-01-15T15:55:40;2;2;
64229;PMS5003;50547;49.498;0.092;2024-01-15T15:58:10;1;1;
64229;PMS5003;50547;49.498;0.092;2024-01-15T16:00:39;1;1;
64229;PMS5003;50547;49.498;0.092;2024-01-15T16:03:08;1;1;
64229;PMS5003;50547;49.498;0.092;2024-01-15T16:05:37;1;1;
64229;PMS5003;50547;49.498;0.092;2024-01-15T16:08:07;1;1;
64229;PMS5003;50547;49.498;0.092;2024-01-15T16:10:36;1;1;
64229;PMS5003;50547;49.498;0.092;2024-01-15T16:13:05;2;2;
64229;PMS5003;50547;49.498;0.092;2024-01-15T16:15:34;3;3;
64229;PMS5003;50547;49.498;0.092;2024-01-15T16:18:03;1;1;
64229;PMS5003;50547;49.498;0.092;2024-01-15T16:20:33;2;2;
64229;PMS5003;50547;49.498;0.092;2024-01-15T16:23:02;1;1;
64229;PMS5003;50547;49.498;0.092;2024-01-15T16:25:32;1;1;
64229;PMS5003;50547;49.498;0.092;2024-01-15T16:28:01;1;1;
64229;PMS5003;50547;49.498;0.092;2024-01-15T16:30:30;3;3;
64229;PMS5003;50547;49.498;0.092;2024-01-15T16:32:59;3;3;
64229;PMS5003;50547;49.498;0.092;2024-01-15T16:35:26;4;4;
64229;PMS5003;50547;49.498;0.092;2024-01-15T16:37:56;4;4;
64229;PMS5003;50547;49.498;0.092;2024-01-15T16:40:25;4;4;
64229;PMS5003;50547;49.498;0.092;2024-01-15T16:42:54;4;4;
64229;PMS5003;50547;49.498;0.092;2024-01-15T16:45:23;7;7;
64229;PMS5003;50547;49.498;0.092;2024-01-15T16:47:53;7;7;
64229;PMS5003;50547;49.498;0.092;2024-01-15T16:50:22;7;7;
64229;PMS5003;50547;49.498;0.092;2024-01-15T16:52:51;6;6;
64229;PMS5003;50547;49.498;0.092;2024-01-15T16:55:20;8;8;
64229;PMS5003;50547;49.498;0.092;2024-01-15T16:57:49;7;7;
64229;PMS5003;50547;49.498;0.092;2024-01-15T17:00:19;10;10;
64229;PMS5003;50547;49.498;0.092;2024-01-15T17:02:48;8;8;
64229;PMS5003;50547;49.498;0.092;2024-01-15T17:05:17;7;7;
64229;PMS5003;50547;49.498;0.092;2024-01-15T17:07:47;7;7;
64229;PMS5003;50547;49.498;0.092;2024-01-15T17:10:16;9;9;
64229;PMS5003;50547;49.498;0.092;2024-01-15T17:12:45;7;7;
64229;PMS5003;50547;49.498;0.092;2024-01-15T17:15:15;13;13;
64229;PMS5003;50547;49.498;0.092;2024-01-15T17:17:40;11;11;
64229;PMS5003;50547;49.498;0.092;2024-01-15T17:20:10;10;10;
64229;PMS5003;50547;49.498;0.092;2024-01-15T17:22:39;10;10;
64229;PMS5003;50547;49.498;0.092;2024-01-15T17:25:08;10;10;
64229;PMS5003;50547;49.498;0.092;2024-01-15T17:27:38;10;10;
64229;PMS5003;50547;49.498;0.092;2024-01-15T17:30:07;10;10;
64229;PMS5003;50547;49.498;0.092;2024-01-15T17:32:37;8;8;
64229;PMS5003;50547;49.498;0.092;2024-01-15T17:35:07;10;10;
64229;PMS5003;50547;49.498;0.092;2024-01-15T17:37:36;7;7;
64229;PMS5003;50547;49.498;0.092;2024-01-15T17:40:06;6;6;
64229;PMS5003;50547;49.498;0.092;2024-01-15T17:42:36;4;4;
64229;PMS5003;50547;49.498;0.092;2024-01-15T17:45:06;4;4;
64229;PMS5003;50547;49.498;0.092;2024-01-15T17:47:35;4;4;
64229;PMS5003;50547;49.498;0.092;2024-01-15T17:50:05;7;7;
64229;PMS5003;50547;49.498;0.092;2024-01-15T17:52:34;7;7;
64229;PMS5003;50547;49.498;0.092;2024-01-15T17:55:04;5;5;
64229;PMS5003;50547;49.498;0.092;2024-01-15T17:57:34;8;8;
64229;PMS5003;50547;49.498;0.092;2024-01-15T18:00:03;6;6;
64229;PMS5003;50547;49.498;0.092;2024-01-15T18:02:33;10;10;
64229;PMS5003;50547;49.498;0.092;2024-01-15T18:05:03;7;7;
64229;PMS5003;50547;49.498;0.092;2024-01-15T18:07:32;7;7;
64229;PMS5003;50547;49.498;0.092;2024-01-15T18:10:02;8;8;
64229;PMS5003;50547;49.498;0.092;2024-01-15T18:12:31;10;10;
64229;PMS5003;50547;49.498;0.092;2024-01-15T18:15:00;10;10;
64229;PMS5003;50547;49.498;0.092;2024-01-15T18:17:30;7;7;
64229;PMS5003;50547;49.498;0.092;2024-01-15T18:19:59;11;11;
64229;PMS5003;50547;49.498;0.092;2024-01-15T18:22:28;22;19;
64229;PMS5003;50547;49.498;0.092;2024-01-15T18:24:57;11;11;
64229;PMS5003;50547;49.498;0.092;2024-01-15T18:27:27;10;10;
64229;PMS5003;50547;49.498;0.092;2024-01-15T18:29:56;10;10;
64229;PMS5003;50547;49.498;0.092;2024-01-15T18:32:25;10;10;
64229;PMS5003;50547;49.498;0.092;2024-01-15T18:34:54;8;8;
64229;PMS5003;50547;49.498;0.092;2024-01-15T18:37:23;11;11;
64229;PMS5003;50547;49.498;0.092;2024-01-15T18:39:53;9;9;
64229;PMS5003;50547;49.498;0.092;2024-01-15T18:42:22;21;18;
64229;PMS5003;50547;49.498;0.092;2024-01-15T18:44:51;41;38;
64229;PMS5003;50547;49.498;0.092;2024-01-15T18:47:20;10;10;
64229;PMS5003;50547;49.498;0.092;2024-01-15T18:49:50;10;10;
64229;PMS5003;50547;49.498;0.092;2024-01-15T18:52:20;5;5;
64229;PMS5003;50547;49.498;0.092;2024-01-15T18:54:49;5;5;
64229;PMS5003;50547;49.498;0.092;2024-01-15T18:57:19;8;8;
64229;PMS5003;50547;49.498;0.092;2024-01-15T18:59:48;10;10;
64229;PMS5003;50547;49.498;0.092;2024-01-15T19:02:17;10;10;
64229;PMS5003;50547;49.498;0.092;2024-01-15T19:04:46;18;16;
64229;PMS5003;50547;49.498;0.092;2024-01-15T19:07:16;19;17;
64229;PMS5003;50547;49.498;0.092;2024-01-15T19:09:45;19;17;
64229;PMS5003;50547;49.498;0.092;2024-01-15T19:12:14;10;10;
64229;PMS5003;50547;49.498;0.092;2024-01-15T19:14:43;11;11;
64229;PMS5003;50547;49.498;0.092;2024-01-15T19:17:12;10;10;
64229;PMS5003;50547;49.498;0.092;2024-01-15T19:19:41;13;13;
64229;PMS5003;50547;49.498;0.092;2024-01-15T19:22:11;7;7;
64229;PMS5003;50547;49.498;0.092;2024-01-15T19:24:40;5;5;
64229;PMS5003;50547;49.498;0.092;2024-01-15T19:27:09;8;8;
64229;PMS5003;50547;49.498;0.092;2024-01-15T19:29:35;7;7;
64229;PMS5003;50547;49.498;0.092;2024-01-15T19:32:04;13;13;
64229;PMS5003;50547;49.498;0.092;2024-01-15T19:34:34;11;11;
64229;PMS5003;50547;49.498;0.092;2024-01-15T19:37:03;23;20;
64229;PMS5003;50547;49.498;0.092;2024-01-15T19:39:33;27;23;
64229;PMS5003;50547;49.498;0.092;2024-01-15T19:42:02;35;30;
64229;PMS5003;50547;49.498;0.092;2024-01-15T19:44:31;24;21;
64229;PMS5003;50547;49.498;0.092;2024-01-15T19:47:00;25;22;
64229;PMS5003;50547;49.498;0.092;2024-01-15T19:49:30;34;29;
64229;PMS5003;50547;49.498;0.092;2024-01-15T19:52:00;31;27;
64229;PMS5003;50547;49.498;0.092;2024-01-15T19:54:29;34;29;
64229;PMS5003;50547;49.498;0.092;2024-01-15T19:56:58;41;38;
64229;PMS5003;50547;49.498;0.092;2024-01-15T19:59:28;42;40;
64229;PMS5003;50547;49.498;0.092;2024-01-15T20:01:57;35;30;
64229;PMS5003;50547;49.498;0.092;2024-01-15T20:04:26;41;38;
64229;PMS5003;50547;49.498;0.092;2024-01-15T20:06:55;55;48;
64229;PMS5003;50547;49.498;0.092;2024-01-15T20:09:25;151;121;
64229;PMS5003;50547;49.498;0.092;2024-01-15T20:11:54;130;104;
64229;PMS5003;50547;49.498;0.092;2024-01-15T20:14:23;74;63;
64229;PMS5003;50547;49.498;0.092;2024-01-15T20:16:53;42;40;
64229;PMS5003;50547;49.498;0.092;2024-01-15T20:19:22;40;36;
64229;PMS5003;50547;49.498;0.092;2024-01-15T20:21:51;55;48;
64229;PMS5003;50547;49.498;0.092;2024-01-15T20:24:20;85;71;
64229;PMS5003;50547;49.498;0.092;2024-01-15T20:26:50;96;80;
64229;PMS5003;50547;49.498;0.092;2024-01-15T20:29:19;96;80;
64229;PMS5003;50547;49.498;0.092;2024-01-15T20:31:48;144;114;
64229;PMS5003;50547;49.498;0.092;2024-01-15T20:34:18;144;114;
64229;PMS5003;50547;49.498;0.092;2024-01-15T20:36:47;94;78;
64229;PMS5003;50547;49.498;0.092;2024-01-15T20:39:16;105;86;
64229;PMS5003;50547;49.498;0.092;2024-01-15T20:41:45;92;76;
64229;PMS5003;50547;49.498;0.092;2024-01-15T20:44:15;41;38;
64229;PMS5003;50547;49.498;0.092;2024-01-15T20:46:44;40;36;
64229;PMS5003;50547;49.498;0.092;2024-01-15T20:49:12;76;65;
64229;PMS5003;50547;49.498;0.092;2024-01-15T20:51:41;110;89;
64229;PMS5003;50547;49.498;0.092;2024-01-15T20:54:11;41;38;
64229;PMS5003;50547;49.498;0.092;2024-01-15T20:56:40;35;30;
64229;PMS5003;50547;49.498;0.092;2024-01-15T20:59:09;34;29;
64229;PMS5003;50547;49.498;0.092;2024-01-15T21:01:38;34;29;
64229;PMS5003;50547;49.498;0.092;2024-01-15T21:04:08;31;27;
64229;PMS5003;50547;49.498;0.092;2024-01-15T21:06:37;34;29;
64229;PMS5003;50547;49.498;0.092;2024-01-15T21:09:06;29;25;
64229;PMS5003;50547;49.498;0.092;2024-01-15T21:11:35;34;29;
64229;PMS5003;50547;49.498;0.092;2024-01-15T21:14:04;33;28;
64229;PMS5003;50547;49.498;0.092;2024-01-15T21:16:34;34;29;
64229;PMS5003;50547;49.498;0.092;2024-01-15T21:19:03;31;27;
64229;PMS5003;50547;49.498;0.092;2024-01-15T21:21:32;25;22;
64229;PMS5003;50547;49.498;0.092;2024-01-15T21:24:01;30;26;
64229;PMS5003;50547;49.498;0.092;2024-01-15T21:26:31;29;25;
64229;PMS5003;50547;49.498;0.092;2024-01-15T21:29:00;31;27;
64229;PMS5003;50547;49.498;0.092;2024-01-15T21:31:29;27;23;
64229;PMS5003;50547;49.498;0.092;2024-01-15T21:34:04;25;22;
64229;PMS5003;50547;49.498;0.092;2024-01-15T21:36:34;25;22;
64229;PMS5003;50547;49.498;0.092;2024-01-15T21:39:04;29;25;
64229;PMS5003;50547;49.498;0.092;2024-01-15T21:41:30;30;26;
64229;PMS5003;50547;49.498;0.092;2024-01-15T21:43:59;30;26;
64229;PMS5003;50547;49.498;0.092;2024-01-15T21:46:29;34;29;
64229;PMS5003;50547;49.498;0.092;2024-01-15T21:48:58;31;27;
64229;PMS5003;50547;49.498;0.092;2024-01-15T21:51:27;34;29;
64229;PMS5003;50547;49.498;0.092;2024-01-15T21:53:56;30;26;
64229;PMS5003;50547;49.498;0.092;2024-01-15T21:56:26;29;25;
64229;PMS5003;50547;49.498;0.092;2024-01-15T21:58:56;29;25;
64229;PMS5003;50547;49.498;0.092;2024-01-15T22:01:25;33;28;
64229;PMS5003;50547;49.498;0.092;2024-01-15T22:03:54;31;27;
64229;PMS5003;50547;49.498;0.092;2024-01-15T22:06:23;33;28;
64229;PMS5003;50547;49.498;0.092;2024-01-15T22:08:53;30;26;
64229;PMS5003;50547;49.498;0.092;2024-01-15T22:11:22;28;24;
64229;PMS5003;50547;49.498;0.092;2024-01-15T22:13:51;27;23;
64229;PMS5003;50547;49.498;0.092;2024-01-15T22:16:20;28;24;
64229;PMS5003;50547;49.498;0.092;2024-01-15T22:18:49;30;26;
64229;PMS5003;50547;49.498;0.092;2024-01-15T22:21:19;29;25;
64229;PMS5003;50547;49.498;0.092;2024-01-15T22:23:48;28;24;
64229;PMS5003;50547;49.498;0.092;2024-01-15T22:26:17;27;23;
64229;PMS5003;50547;49.498;0.092;2024-01-15T22:28:46;29;25;
64229;PMS5003;50547;49.498;0.092;2024-01-15T22:31:16;30;26;
64229;PMS5003;50547;49.498;0.092;2024-01-15T22:33:45;30;26;
64229;PMS5003;50547;49.498;0.092;2024-01-15T22:36:14;30;26;
64229;PMS5003;50547;49.498;0.092;2024-01-15T22:38:43;28;24;
64229;PMS5003;50547;49.498;0.092;2024-01-15T22:41:12;25;22;
64229;PMS5003;50547;49.498;0.092;2024-01-15T22:43:42;26;23;
64229;PMS5003;50547;49.498;0.092;2024-01-15T22:46:11;24;21;
64229;PMS5003;50547;49.498;0.092;2024-01-15T22:48:40;23;20;
64229;PMS5003;50547;49.498;0.092;2024-01-15T22:51:10;23;20;
64229;PMS5003;50547;49.498;0.092;2024-01-15T22:53:39;23;20;
64229;PMS5003;50547;49.498;0.092;2024-01-15T22:56:08;27;23;
64229;PMS5003;50547;49.498;0.092;2024-01-15T22:58:37;23;20;
64229;PMS5003;50547;49.498;0.092;2024-01-15T23:01:06;23;20;
64229;PMS5003;50547;49.498;0.092;2024-01-15T23:03:36;25;22;
64229;PMS5003;50547;49.498;0.092;2024-01-15T23:06:05;25;22;
64229;PMS5003;50547;49.498;0.092;2024-01-15T23:08:43;26;23;
64229;PMS5003;50547;49.498;0.092;2024-01-15T23:11:13;25;22;
64229;PMS5003;50547;49.498;0.092;2024-01-15T23:13:42;31;27;
64229;PMS5003;50547;49.498;0.092;2024-01-15T23:16:11;30;26;
64229;PMS5003;50547;49.498;0.092;2024-01-15T23:18:40;26;23;
64229;PMS5003;50547;49.498;0.092;2024-01-15T23:21:10;25;22;
64229;PMS5003;50547;49.498;0.092;2024-01-15T23:23:39;28;24;
64229;PMS5003;50547;49.498;0.092;2024-01-15T23:26:08;27;23;
64229;PMS5003;50547;49.498;0.092;2024-01-15T23:28:37;25;22;
64229;PMS5003;50547;49.498;0.092;2024-01-15T23:31:06;24;21;
64229;PMS5003;50547;49.498;0.092;2024-01-15T23:33:36;24;21;
64229;PMS5003;50547;49.498;0.092;2024-01-15T23:36:06;28;24;
64229;PMS5003;50547;49.498;0.092;2024-01-15T23:38:36;26;23;
64229;PMS5003;50547;49.498;0.092;2024-01-15T23:41:05;28;24;
64229;PMS5003;50547;49.498;0.092;2024-01-15T23:43:37;34;29;
64229;PMS5003;50547;49.498;0.092;2024-01-15T23:46:07;34;29;
64229;PMS5003;50547;49.498;0.092;2024-01-15T23:48:33;31;27;
64229;PMS5003;50547;49.498;0.092;2024-01-15T23:51:02;30;26;
64229;PMS5003;50547;49.498;0.092;2024-01-15T23:53:48;29;25;
64229;PMS5003;50547;49.498;0.092;2024-01-15T23:56:18;29;25;
64229;PMS5003;50547;49.498;0.092;2024-01-15T23:58:48;31;27;
